sensor_id;sensor_type;location;lat;lon;timestamp;P1;durP1;ratioP1;P2;durP2;ratioP2
52226;SDS011;38190;59.928;10.446;2022-08-19T00:02:46;9.55;;;6.30;;
52226;SDS011;38190;59.928;10.446;2022-08-19T00:05:46;9.25;;;5.55;;
52226;SDS011;38190;59.928;10.446;2022-08-19T00:08:47;10.65;;;5.85;;
52226;SDS011;38190;59.928;10.446;2022-08-19T00:11:47;7.00;;;6.30;;
52226;SDS011;38190;59.928;10.446;2022-08-19T00:14:48;6.20;;;5.40;;
52226;SDS011;38190;59.928;10.446;2022-08-19T00:17:49;7.45;;;6.45;;
52226;SDS011;38190;59.928;10.446;2022-08-19T00:20:49;26.42;;;7.45;;
52226;SDS011;38190;59.928;10.446;2022-08-19T00:23:50;8.18;;;5.28;;
52226;SDS011;38190;59.928;10.446;2022-08-19T00:26:50;8.10;;;5.15;;
52226;SDS011;38190;59.928;10.446;2022-08-19T00:29:52;5.35;;;4.88;;
52226;SDS011;38190;59.928;10.446;2022-08-19T00:32:53;10.52;;;5.72;;
52226;SDS011;38190;59.928;10.446;2022-08-19T00:35:55;13.57;;;6.07;;
52226;SDS011;38190;59.928;10.446;2022-08-19T00:38:55;6.82;;;4.68;;
52226;SDS011;38190;59.928;10.446;2022-08-19T00:41:56;7.65;;;6.50;;
52226;SDS011;38190;59.928;10.446;2022-08-19T00:44:57;6.47;;;5.70;;
52226;SDS011;38190;59.928;10.446;2022-08-19T00:47:58;14.68;;;5.20;;
52226;SDS011;38190;59.928;10.446;2022-08-19T00:50:58;6.55;;;5.85;;
52226;SDS011;38190;59.928;10.446;2022-08-19T00:54:00;9.18;;;5.60;;
52226;SDS011;38190;59.928;10.446;2022-08-19T00:57:02;7.75;;;5.32;;
52226;SDS011;38190;59.928;10.446;2022-08-19T01:00:07;8.98;;;6.60;;
52226;SDS011;38190;59.928;10.446;2022-08-19T01:03:13;8.90;;;5.68;;
52226;SDS011;38190;59.928;10.446;2022-08-19T01:06:16;5.28;;;4.78;;
52226;SDS011;38190;59.928;10.446;2022-08-19T01:09:17;12.57;;;6.38;;
52226;SDS011;38190;59.928;10.446;2022-08-19T01:12:17;7.90;;;6.05;;
52226;SDS011;38190;59.928;10.446;2022-08-19T01:15:19;8.55;;;6.10;;
52226;SDS011;38190;59.928;10.446;2022-08-19T01:18:24;25.45;;;8.43;;
52226;SDS011;38190;59.928;10.446;2022-08-19T01:21:34;7.82;;;7.10;;
52226;SDS011;38190;59.928;10.446;2022-08-19T01:24:40;7.72;;;6.03;;
52226;SDS011;38190;59.928;10.446;2022-08-19T01:27:42;12.18;;;7.90;;
52226;SDS011;38190;59.928;10.446;2022-08-19T11:30:10;2.08;;;1.38;;
52226;SDS011;38190;59.928;10.446;2022-08-19T11:33:12;3.28;;;1.30;;
52226;SDS011;38190;59.928;10.446;2022-08-19T11:36:12;4.10;;;2.35;;
52226;SDS011;38190;59.928;10.446;2022-08-19T11:39:14;3.10;;;1.52;;
52226;SDS011;38190;59.928;10.446;2022-08-19T11:42:17;1.95;;;1.45;;
52226;SDS011;38190;59.928;10.446;2022-08-19T11:45:40;4.87;;;1.03;;
52226;SDS011;38190;59.928;10.446;2022-08-19T11:48:41;2.63;;;1.30;;
52226;SDS011;38190;59.928;10.446;2022-08-19T11:51:42;7.72;;;1.77;;
52226;SDS011;38190;59.928;10.446;2022-08-19T11:54:43;3.08;;;0.98;;
52226;SDS011;38190;59.928;10.446;2022-08-19T11:57:43;5.85;;;1.50;;
52226;SDS011;38190;59.928;10.446;2022-08-19T12:00:44;5.35;;;1.05;;
52226;SDS011;38190;59.928;10.446;2022-08-19T12:03:46;2.33;;;1.38;;
52226;SDS011;38190;59.928;10.446;2022-08-19T12:06:48;5.40;;;1.58;;
52226;SDS011;38190;59.928;10.446;2022-08-19T12:09:50;1.75;;;1.38;;
52226;SDS011;38190;59.928;10.446;2022-08-19T12:12:50;2.70;;;1.75;;
52226;SDS011;38190;59.928;10.446;2022-08-19T12:15:51;1.83;;;1.00;;
52226;SDS011;38190;59.928;10.446;2022-08-19T12:18:53;1.63;;;0.95;;
52226;SDS011;38190;59.928;10.446;2022-08-19T12:21:58;3.50;;;0.85;;
52226;SDS011;38190;59.928;10.446;2022-08-19T12:25:01;5.93;;;1.27;;
52226;SDS011;38190;59.928;10.446;2022-08-19T12:28:03;2.03;;;1.00;;
52226;SDS011;38190;59.928;10.446;2022-08-19T12:31:04;1.52;;;0.98;;
52226;SDS011;38190;59.928;10.446;2022-08-19T12:34:05;3.08;;;0.90;;
52226;SDS011;38190;59.928;10.446;2022-08-19T12:37:05;3.42;;;1.23;;
52226;SDS011;38190;59.928;10.446;2022-08-19T12:40:07;8.45;;;1.40;;
52226;SDS011;38190;59.928;10.446;2022-08-19T12:43:08;1.58;;;0.95;;
52226;SDS011;38190;59.928;10.446;2022-08-19T12:46:09;1.70;;;1.17;;
52226;SDS011;38190;59.928;10.446;2022-08-19T12:49:11;3.83;;;1.13;;
52226;SDS011;38190;59.928;10.446;2022-08-19T12:52:11;3.03;;;1.20;;
52226;SDS011;38190;59.928;10.446;2022-08-19T12:55:15;1.65;;;1.00;;
52226;SDS011;38190;59.928;10.446;2022-08-19T12:58:18;2.38;;;0.98;;
52226;SDS011;38190;59.928;10.446;2022-08-19T13:01:19;1.52;;;0.98;;
52226;SDS011;38190;59.928;10.446;2022-08-19T13:04:20;3.95;;;1.50;;
52226;SDS011;38190;59.928;10.446;2022-08-19T13:07:21;3.53;;;0.77;;
52226;SDS011;38190;59.928;10.446;2022-08-19T13:10:22;5.28;;;1.38;;
52226;SDS011;38190;59.928;10.446;2022-08-19T13:13:27;1.90;;;1.23;;
52226;SDS011;38190;59.928;10.446;2022-08-19T13:16:28;1.08;;;0.70;;
52226;SDS011;38190;59.928;10.446;2022-08-19T13:19:28;2.58;;;1.15;;
52226;SDS011;38190;59.928;10.446;2022-08-19T13:22:30;5.57;;;1.17;;
52226;SDS011;38190;59.928;10.446;2022-08-19T13:25:31;3.78;;;1.40;;
52226;SDS011;38190;59.928;10.446;2022-08-19T13:28:32;1.85;;;1.50;;
52226;SDS011;38190;59.928;10.446;2022-08-19T13:31:52;0.77;;;0.75;;
52226;SDS011;38190;59.928;10.446;2022-08-19T13:35:11;1.65;;;0.98;;
52226;SDS011;38190;59.928;10.446;2022-08-19T13:38:13;1.73;;;1.02;;
52226;SDS011;38190;59.928;10.446;2022-08-19T13:41:16;1.85;;;0.68;;
52226;SDS011;38190;59.928;10.446;2022-08-19T13:44:18;7.80;;;1.55;;
52226;SDS011;38190;59.928;10.446;2022-08-19T13:47:19;1.20;;;0.90;;
52226;SDS011;38190;59.928;10.446;2022-08-19T13:50:21;2.33;;;1.10;;
52226;SDS011;38190;59.928;10.446;2022-08-19T13:53:25;0.98;;;0.80;;
52226;SDS011;38190;59.928;10.446;2022-08-19T13:56:26;8.27;;;1.17;;
52226;SDS011;38190;59.928;10.446;2022-08-19T13:59:26;2.60;;;0.95;;
52226;SDS011;38190;59.928;10.446;2022-08-19T14:02:27;1.83;;;1.23;;
52226;SDS011;38190;59.928;10.446;2022-08-19T14:05:28;4.10;;;1.52;;
52226;SDS011;38190;59.928;10.446;2022-08-19T14:08:29;1.45;;;1.10;;
52226;SDS011;38190;59.928;10.446;2022-08-19T14:11:32;1.23;;;0.82;;
52226;SDS011;38190;59.928;10.446;2022-08-19T14:14:35;1.00;;;0.57;;
52226;SDS011;38190;59.928;10.446;2022-08-19T14:17:37;2.08;;;1.48;;
52226;SDS011;38190;59.928;10.446;2022-08-19T14:20:39;3.38;;;1.23;;
52226;SDS011;38190;59.928;10.446;2022-08-19T14:23:40;3.17;;;1.05;;
52226;SDS011;38190;59.928;10.446;2022-08-19T14:26:41;1.80;;;1.02;;
52226;SDS011;38190;59.928;10.446;2022-08-19T14:29:41;2.30;;;0.88;;
52226;SDS011;38190;59.928;10.446;2022-08-19T14:32:42;0.90;;;0.63;;
52226;SDS011;38190;59.928;10.446;2022-08-19T14:35:45;1.30;;;0.57;;
52226;SDS011;38190;59.928;10.446;2022-08-19T14:38:46;1.73;;;0.90;;
52226;SDS011;38190;59.928;10.446;2022-08-19T14:41:46;3.40;;;1.48;;
52226;SDS011;38190;59.928;10.446;2022-08-19T14:44:47;1.38;;;0.98;;
52226;SDS011;38190;59.928;10.446;2022-08-19T14:47:47;3.75;;;0.88;;
52226;SDS011;38190;59.928;10.446;2022-08-19T14:50:48;3.65;;;0.95;;
52226;SDS011;38190;59.928;10.446;2022-08-19T14:53:49;3.20;;;1.60;;
52226;SDS011;38190;59.928;10.446;2022-08-19T14:56:50;2.05;;;1.38;;
52226;SDS011;38190;59.928;10.446;2022-08-19T14:59:50;1.67;;;1.02;;
52226;SDS011;38190;59.928;10.446;2022-08-19T15:02:51;1.88;;;1.20;;
52226;SDS011;38190;59.928;10.446;2022-08-19T15:05:53;2.88;;;1.08;;
52226;SDS011;38190;59.928;10.446;2022-08-19T15:08:54;3.72;;;1.45;;
52226;SDS011;38190;59.928;10.446;2022-08-19T15:11:55;0.57;;;0.47;;
52226;SDS011;38190;59.928;10.446;2022-08-19T15:14:56;1.50;;;0.93;;
52226;SDS011;38190;59.928;10.446;2022-08-19T15:17:57;1.52;;;0.90;;
52226;SDS011;38190;59.928;10.446;2022-08-19T15:21:02;5.65;;;0.93;;
52226;SDS011;38190;59.928;10.446;2022-08-19T15:24:03;1.60;;;0.82;;
52226;SDS011;38190;59.928;10.446;2022-08-19T15:27:05;1.58;;;1.17;;
52226;SDS011;38190;59.928;10.446;2022-08-19T15:30:06;7.55;;;1.17;;
52226;SDS011;38190;59.928;10.446;2022-08-19T15:33:09;1.20;;;0.88;;
52226;SDS011;38190;59.928;10.446;2022-08-19T15:36:14;1.73;;;1.00;;
52226;SDS011;38190;59.928;10.446;2022-08-19T15:39:15;0.98;;;0.85;;
52226;SDS011;38190;59.928;10.446;2022-08-19T15:42:15;0.73;;;0.60;;
52226;SDS011;38190;59.928;10.446;2022-08-19T15:45:17;2.03;;;1.00;;
52226;SDS011;38190;59.928;10.446;2022-08-19T15:48:18;2.03;;;0.63;;
52226;SDS011;38190;59.928;10.446;2022-08-19T15:51:19;2.67;;;1.23;;
52226;SDS011;38190;59.928;10.446;2022-08-19T15:54:20;14.45;;;1.02;;
52226;SDS011;38190;59.928;10.446;2022-08-19T15:57:21;4.50;;;1.38;;
52226;SDS011;38190;59.928;10.446;2022-08-19T16:00:21;2.25;;;1.15;;
52226;SDS011;38190;59.928;10.446;2022-08-19T16:03:40;1.65;;;0.93;;
52226;SDS011;38190;59.928;10.446;2022-08-19T16:07:00;3.38;;;1.10;;
52226;SDS011;38190;59.928;10.446;2022-08-19T16:10:01;2.00;;;0.77;;
52226;SDS011;38190;59.928;10.446;2022-08-19T16:13:03;2.60;;;1.17;;
52226;SDS011;38190;59.928;10.446;2022-08-19T16:16:05;1.17;;;0.70;;
52226;SDS011;38190;59.928;10.446;2022-08-19T16:19:06;4.97;;;1.10;;
52226;SDS011;38190;59.928;10.446;2022-08-19T16:22:08;1.42;;;0.75;;
52226;SDS011;38190;59.928;10.446;2022-08-19T16:25:09;2.28;;;0.68;;
52226;SDS011;38190;59.928;10.446;2022-08-19T16:28:09;0.70;;;0.60;;
52226;SDS011;38190;59.928;10.446;2022-08-19T16:31:10;1.65;;;1.10;;
52226;SDS011;38190;59.928;10.446;2022-08-19T16:34:12;0.73;;;0.40;;
52226;SDS011;38190;59.928;10.446;2022-08-19T16:37:13;3.47;;;1.25;;
52226;SDS011;38190;59.928;10.446;2022-08-19T16:40:14;1.80;;;0.82;;
52226;SDS011;38190;59.928;10.446;2022-08-19T16:43:15;1.27;;;0.80;;
52226;SDS011;38190;59.928;10.446;2022-08-19T16:46:15;2.10;;;1.02;;
52226;SDS011;38190;59.928;10.446;2022-08-19T16:49:16;2.45;;;1.15;;
52226;SDS011;38190;59.928;10.446;2022-08-19T16:52:17;2.17;;;1.35;;
52226;SDS011;38190;59.928;10.446;2022-08-19T16:55:19;1.10;;;0.75;;
52226;SDS011;38190;59.928;10.446;2022-08-19T16:58:21;1.90;;;0.80;;
52226;SDS011;38190;59.928;10.446;2022-08-19T17:01:24;8.48;;;0.90;;
52226;SDS011;38190;59.928;10.446;2022-08-19T17:04:26;2.42;;;1.33;;
52226;SDS011;38190;59.928;10.446;2022-08-19T17:07:28;1.40;;;0.80;;
52226;SDS011;38190;59.928;10.446;2022-08-19T17:10:29;1.70;;;1.13;;
52226;SDS011;38190;59.928;10.446;2022-08-19T17:13:30;1.42;;;1.00;;
52226;SDS011;38190;59.928;10.446;2022-08-19T17:16:31;1.95;;;1.30;;
52226;SDS011;38190;59.928;10.446;2022-08-19T17:19:33;4.35;;;1.38;;
52226;SDS011;38190;59.928;10.446;2022-08-19T17:22:34;2.17;;;1.30;;
52226;SDS011;38190;59.928;10.446;2022-08-19T17:25:36;2.92;;;1.10;;
52226;SDS011;38190;59.928;10.446;2022-08-19T17:28:37;2.65;;;1.13;;
52226;SDS011;38190;59.928;10.446;2022-08-19T17:31:38;2.22;;;1.38;;
52226;SDS011;38190;59.928;10.446;2022-08-19T17:34:38;4.55;;;1.17;;
52226;SDS011;38190;59.928;10.446;2022-08-19T17:37:38;2.00;;;1.42;;
52226;SDS011;38190;59.928;10.446;2022-08-19T17:40:39;2.10;;;1.63;;
52226;SDS011;38190;59.928;10.446;2022-08-19T17:43:43;2.88;;;2.13;;
52226;SDS011;38190;59.928;10.446;2022-08-19T17:46:44;4.53;;;1.60;;
52226;SDS011;38190;59.928;10.446;2022-08-19T17:49:45;2.33;;;1.55;;
52226;SDS011;38190;59.928;10.446;2022-08-19T17:52:46;1.40;;;0.98;;
52226;SDS011;38190;59.928;10.446;2022-08-19T17:55:51;1.67;;;1.10;;
52226;SDS011;38190;59.928;10.446;2022-08-19T17:58:52;1.25;;;0.80;;
52226;SDS011;38190;59.928;10.446;2022-08-19T18:01:52;2.28;;;1.38;;
52226;SDS011;38190;59.928;10.446;2022-08-19T18:04:52;3.55;;;1.50;;
52226;SDS011;38190;59.928;10.446;2022-08-19T18:07:53;3.95;;;1.77;;
52226;SDS011;38190;59.928;10.446;2022-08-19T18:10:56;1.80;;;1.35;;
52226;SDS011;38190;59.928;10.446;2022-08-19T18:13:56;4.95;;;2.03;;
52226;SDS011;38190;59.928;10.446;2022-08-19T18:16:57;4.20;;;1.50;;
52226;SDS011;38190;59.928;10.446;2022-08-19T18:19:58;4.45;;;1.52;;
52226;SDS011;38190;59.928;10.446;2022-08-19T18:22:59;3.53;;;1.50;;
52226;SDS011;38190;59.928;10.446;2022-08-19T18:26:00;3.03;;;1.92;;
52226;SDS011;38190;59.928;10.446;2022-08-19T18:29:01;8.13;;;3.25;;
52226;SDS011;38190;59.928;10.446;2022-08-19T18:32:02;4.40;;;1.80;;
52226;SDS011;38190;59.928;10.446;2022-08-19T18:35:08;2.80;;;1.60;;
52226;SDS011;38190;59.928;10.446;2022-08-19T18:38:10;1.90;;;1.48;;
52226;SDS011;38190;59.928;10.446;2022-08-19T18:41:31;2.33;;;1.67;;
52226;SDS011;38190;59.928;10.446;2022-08-19T18:44:49;3.92;;;1.63;;
52226;SDS011;38190;59.928;10.446;2022-08-19T18:48:08;5.75;;;1.17;;
52226;SDS011;38190;59.928;10.446;2022-08-19T18:51:27;6.20;;;2.25;;
52226;SDS011;38190;59.928;10.446;2022-08-19T18:54:33;1.98;;;1.50;;
52226;SDS011;38190;59.928;10.446;2022-08-19T18:57:34;7.18;;;1.73;;
52226;SDS011;38190;59.928;10.446;2022-08-19T19:00:35;6.18;;;1.42;;
52226;SDS011;38190;59.928;10.446;2022-08-19T19:03:40;2.75;;;1.13;;
52226;SDS011;38190;59.928;10.446;2022-08-19T19:06:44;2.20;;;1.45;;
52226;SDS011;38190;59.928;10.446;2022-08-19T19:09:45;4.20;;;1.70;;
52226;SDS011;38190;59.928;10.446;2022-08-19T19:12:52;3.22;;;1.33;;
52226;SDS011;38190;59.928;10.446;2022-08-19T19:15:52;3.30;;;2.33;;
52226;SDS011;38190;59.928;10.446;2022-08-19T19:18:53;4.90;;;1.25;;
52226;SDS011;38190;59.928;10.446;2022-08-19T19:21:54;6.95;;;1.88;;
52226;SDS011;38190;59.928;10.446;2022-08-19T19:24:55;2.20;;;1.30;;
52226;SDS011;38190;59.928;10.446;2022-08-19T19:27:58;3.47;;;1.92;;
52226;SDS011;38190;59.928;10.446;2022-08-19T19:30:58;3.88;;;1.73;;
52226;SDS011;38190;59.928;10.446;2022-08-19T19:33:59;2.97;;;1.98;;
52226;SDS011;38190;59.928;10.446;2022-08-19T19:36:59;6.20;;;1.88;;
52226;SDS011;38190;59.928;10.446;2022-08-19T19:40:00;11.20;;;2.03;;
52226;SDS011;38190;59.928;10.446;2022-08-19T19:43:00;4.15;;;2.92;;
52226;SDS011;38190;59.928;10.446;2022-08-19T19:46:03;11.88;;;2.63;;
52226;SDS011;38190;59.928;10.446;2022-08-19T19:49:04;5.63;;;2.08;;
52226;SDS011;38190;59.928;10.446;2022-08-19T19:52:05;4.07;;;1.65;;
52226;SDS011;38190;59.928;10.446;2022-08-19T19:55:06;5.63;;;2.35;;
52226;SDS011;38190;59.928;10.446;2022-08-19T19:58:08;3.50;;;2.35;;
52226;SDS011;38190;59.928;10.446;2022-08-19T20:01:08;2.13;;;1.25;;
52226;SDS011;38190;59.928;10.446;2022-08-19T20:04:12;6.90;;;2.42;;
52226;SDS011;38190;59.928;10.446;2022-08-19T20:07:13;2.60;;;1.63;;
52226;SDS011;38190;59.928;10.446;2022-08-19T20:10:13;4.70;;;2.47;;
52226;SDS011;38190;59.928;10.446;2022-08-19T20:13:14;5.60;;;1.52;;
52226;SDS011;38190;59.928;10.446;2022-08-19T20:16:15;2.33;;;2.13;;
52226;SDS011;38190;59.928;10.446;2022-08-19T20:19:18;2.28;;;1.92;;
52226;SDS011;38190;59.928;10.446;2022-08-19T20:22:20;7.97;;;2.05;;
52226;SDS011;38190;59.928;10.446;2022-08-19T20:25:20;3.15;;;1.55;;
52226;SDS011;38190;59.928;10.446;2022-08-19T20:28:21;2.30;;;1.98;;
52226;SDS011;38190;59.928;10.446;2022-08-19T20:31:22;7.05;;;2.20;;
52226;SDS011;38190;59.928;10.446;2022-08-19T20:34:23;1.98;;;1.70;;
52226;SDS011;38190;59.928;10.446;2022-08-19T20:37:24;4.05;;;2.17;;
52226;SDS011;38190;59.928;10.446;2022-08-19T20:40:25;2.45;;;1.75;;
52226;SDS011;38190;59.928;10.446;2022-08-19T20:43:27;2.25;;;1.58;;
52226;SDS011;38190;59.928;10.446;2022-08-19T20:46:27;2.95;;;2.15;;
52226;SDS011;38190;59.928;10.446;2022-08-19T20:49:28;4.70;;;2.05;;
52226;SDS011;38190;59.928;10.446;2022-08-19T20:52:29;2.55;;;1.38;;
52226;SDS011;38190;59.928;10.446;2022-08-19T20:55:29;2.40;;;1.70;;
52226;SDS011;38190;59.928;10.446;2022-08-19T20:58:30;3.00;;;2.25;;
52226;SDS011;38190;59.928;10.446;2022-08-19T21:01:30;2.45;;;1.40;;
52226;SDS011;38190;59.928;10.446;2022-08-19T21:04:31;3.83;;;2.53;;
52226;SDS011;38190;59.928;10.446;2022-08-19T21:07:32;2.67;;;1.65;;
52226;SDS011;38190;59.928;10.446;2022-08-19T21:10:33;2.70;;;2.28;;
52226;SDS011;38190;59.928;10.446;2022-08-19T21:13:34;2.80;;;1.65;;
52226;SDS011;38190;59.928;10.446;2022-08-19T21:16:35;1.98;;;1.52;;
52226;SDS011;38190;59.928;10.446;2022-08-19T21:19:35;2.42;;;1.73;;
52226;SDS011;38190;59.928;10.446;2022-08-19T21:22:36;7.50;;;1.75;;
52226;SDS011;38190;59.928;10.446;2022-08-19T21:25:37;2.92;;;1.52;;
52226;SDS011;38190;59.928;10.446;2022-08-19T21:28:38;10.25;;;2.00;;
52226;SDS011;38190;59.928;10.446;2022-08-19T21:31:39;4.70;;;2.08;;
52226;SDS011;38190;59.928;10.446;2022-08-19T21:34:40;5.10;;;2.30;;
52226;SDS011;38190;59.928;10.446;2022-08-19T21:37:41;4.22;;;2.38;;
52226;SDS011;38190;59.928;10.446;2022-08-19T21:40:41;2.58;;;1.95;;
52226;SDS011;38190;59.928;10.446;2022-08-19T21:43:42;2.10;;;1.70;;
52226;SDS011;38190;59.928;10.446;2022-08-19T21:46:42;3.00;;;1.65;;
52226;SDS011;38190;59.928;10.446;2022-08-19T21:49:43;9.13;;;2.25;;
52226;SDS011;38190;59.928;10.446;2022-08-19T21:52:43;18.40;;;2.78;;
52226;SDS011;38190;59.928;10.446;2022-08-19T21:55:46;2.50;;;2.05;;
52226;SDS011;38190;59.928;10.446;2022-08-19T21:58:47;10.35;;;2.38;;
52226;SDS011;38190;59.928;10.446;2022-08-19T22:01:47;5.07;;;1.90;;
52226;SDS011;38190;59.928;10.446;2022-08-19T22:04:48;2.15;;;1.58;;
52226;SDS011;38190;59.928;10.446;2022-08-19T22:07:50;2.05;;;1.73;;
52226;SDS011;38190;59.928;10.446;2022-08-19T22:10:52;8.27;;;2.00;;
52226;SDS011;38190;59.928;10.446;2022-08-19T22:13:53;3.25;;;1.98;;
52226;SDS011;38190;59.928;10.446;2022-08-19T22:16:55;4.10;;;2.22;;
52226;SDS011;38190;59.928;10.446;2022-08-19T22:19:55;6.00;;;1.50;;
52226;SDS011;38190;59.928;10.446;2022-08-19T22:22:58;10.30;;;2.75;;
52226;SDS011;38190;59.928;10.446;2022-08-19T22:26:00;4.47;;;2.58;;
52226;SDS011;38190;59.928;10.446;2022-08-19T22:29:01;1.95;;;1.63;;
52226;SDS011;38190;59.928;10.446;2022-08-19T22:32:01;13.77;;;3.00;;
52226;SDS011;38190;59.928;10.446;2022-08-19T22:35:02;3.67;;;2.17;;
52226;SDS011;38190;59.928;10.446;2022-08-19T22:38:04;2.50;;;1.65;;
52226;SDS011;38190;59.928;10.446;2022-08-19T22:41:06;4.20;;;2.38;;
52226;SDS011;38190;59.928;10.446;2022-08-19T22:44:06;2.28;;;1.83;;
52226;SDS011;38190;59.928;10.446;2022-08-19T22:47:10;3.17;;;1.73;;
52226;SDS011;38190;59.928;10.446;2022-08-19T22:50:11;3.30;;;1.85;;
52226;SDS011;38190;59.928;10.446;2022-08-19T22:53:11;11.25;;;1.90;;
52226;SDS011;38190;59.928;10.446;2022-08-19T22:56:13;4.18;;;2.17;;
52226;SDS011;38190;59.928;10.446;2022-08-19T22:59:16;2.33;;;1.83;;
52226;SDS011;38190;59.928;10.446;2022-08-19T23:02:18;2.97;;;1.98;;
52226;SDS011;38190;59.928;10.446;2022-08-19T23:05:20;2.40;;;2.08;;
52226;SDS011;38190;59.928;10.446;2022-08-19T23:08:22;3.70;;;1.77;;
52226;SDS011;38190;59.928;10.446;2022-08-19T23:11:22;3.03;;;1.80;;
52226;SDS011;38190;59.928;10.446;2022-08-19T23:14:23;3.05;;;1.88;;
52226;SDS011;38190;59.928;10.446;2022-08-19T23:17:23;2.50;;;1.88;;
52226;SDS011;38190;59.928;10.446;2022-08-19T23:20:24;6.38;;;3.15;;
52226;SDS011;38190;59.928;10.446;2022-08-19T23:23:27;5.95;;;2.88;;
52226;SDS011;38190;59.928;10.446;2022-08-19T23:26:27;4.75;;;2.38;;
52226;SDS011;38190;59.928;10.446;2022-08-19T23:29:28;3.47;;;3.17;;
52226;SDS011;38190;59.928;10.446;2022-08-19T23:32:47;2.28;;;2.08;;
52226;SDS011;38190;59.928;10.446;2022-08-19T23:35:47;9.35;;;2.53;;
52226;SDS011;38190;59.928;10.446;2022-08-19T23:38:48;2.92;;;1.75;;
52226;SDS011;38190;59.928;10.446;2022-08-19T23:41:51;3.88;;;2.33;;
52226;SDS011;38190;59.928;10.446;2022-08-19T23:44:51;15.27;;;2.25;;
52226;SDS011;38190;59.928;10.446;2022-08-19T23:47:52;6.85;;;1.92;;
52226;SDS011;38190;59.928;10.446;2022-08-19T23:50:53;5.35;;;2.65;;
52226;SDS011;38190;59.928;10.446;2022-08-19T23:53:55;2.63;;;2.22;;
52226;SDS011;38190;59.928;10.446;2022-08-19T23:56:55;5.15;;;2.00;;
52226;SDS011;38190;59.928;10.446;2022-08-19T23:59:56;4.53;;;2.65;;
